Terminal Aerodrome Forecast
Issued by NWS

Home | Current Version | Previous Version | Text Only | Print | Product List | Glossary On
Versions: 1 2 3 4 5 6 7 8 9 10 11 12 13 14 15 16 17
000
FTUS45 KBOU 261733
TAFBJC
TAF
KBJC 261733Z 2618/2718 VRB06KT P6SM SCT050 BKN120
     FM262100 11009KT P6SM SCT060 BKN150
     FM270500 17010KT P6SM FEW080 SCT150
     FM270800 25006KT P6SM SCT100 BKN220
     FM271500 VRB05KT P6SM SCT100 BKN220=

USA.gov is the U.S. government's official web portal to all federal, state and local government web resources and services.